sensor_id;sensor_type;location;lat;lon;timestamp;pressure;altitude;pressure_sealevel;temperature;humidity
20444;BME280;10381;53.730;10.010;2022-11-14T00:02:09;101816.50;;;7.87;100.00
20444;BME280;10381;53.730;10.010;2022-11-14T00:06:10;101815.94;;;7.82;100.00
20444;BME280;10381;53.730;10.010;2022-11-14T00:10:11;101806.22;;;7.82;100.00
20444;BME280;10381;53.730;10.010;2022-11-14T00:14:11;101802.72;;;7.82;100.00
20444;BME280;10381;53.730;10.010;2022-11-14T00:18:11;101799.69;;;7.74;100.00
20444;BME280;10381;53.730;10.010;2022-11-14T00:22:12;101795.38;;;7.73;100.00
20444;BME280;10381;53.730;10.010;2022-11-14T00:26:12;101785.19;;;7.66;100.00
20444;BME280;10381;53.730;10.010;2022-11-14T00:30:13;101787.94;;;7.65;100.00
20444;BME280;10381;53.730;10.010;2022-11-14T00:34:13;101789.69;;;7.64;100.00
20444;BME280;10381;53.730;10.010;2022-11-14T00:38:13;101781.75;;;7.50;100.00
20444;BME280;10381;53.730;10.010;2022-11-14T00:42:14;101771.81;;;7.55;100.00
20444;BME280;10381;53.730;10.010;2022-11-14T00:46:14;101768.22;;;7.56;100.00
20444;BME280;10381;53.730;10.010;2022-11-14T00:50:15;101762.94;;;7.56;100.00
20444;BME280;10381;53.730;10.010;2022-11-14T00:54:16;101756.16;;;7.52;100.00
20444;BME280;10381;53.730;10.010;2022-11-14T00:58:16;101744.47;;;7.42;100.00
20444;BME280;10381;53.730;10.010;2022-11-14T01:02:16;101743.31;;;7.32;100.00
20444;BME280;10381;53.730;10.010;2022-11-14T01:06:18;101742.63;;;7.28;100.00
20444;BME280;10381;53.730;10.010;2022-11-14T01:10:18;101732.63;;;7.19;100.00
20444;BME280;10381;53.730;10.010;2022-11-14T01:14:20;101739.69;;;7.18;100.00
20444;BME280;10381;53.730;10.010;2022-11-14T01:18:20;101724.00;;;7.17;100.00
20444;BME280;10381;53.730;10.010;2022-11-14T01:22:20;101731.78;;;7.18;100.00
20444;BME280;10381;53.730;10.010;2022-11-14T01:26:21;101723.50;;;7.10;100.00
20444;BME280;10381;53.730;10.010;2022-11-14T01:30:21;101722.75;;;7.08;100.00
20444;BME280;10381;53.730;10.010;2022-11-14T01:34:22;101719.06;;;7.11;100.00
20444;BME280;10381;53.730;10.010;2022-11-14T01:38:22;101725.19;;;7.11;100.00
20444;BME280;10381;53.730;10.010;2022-11-14T01:42:22;101720.94;;;7.09;100.00
20444;BME280;10381;53.730;10.010;2022-11-14T01:46:34;101705.25;;;7.07;100.00
20444;BME280;10381;53.730;10.010;2022-11-14T01:50:36;101700.63;;;7.11;100.00
20444;BME280;10381;53.730;10.010;2022-11-14T01:54:38;101695.44;;;7.09;100.00
20444;BME280;10381;53.730;10.010;2022-11-14T01:58:44;101680.00;;;7.03;100.00
20444;BME280;10381;53.730;10.010;2022-11-14T02:02:46;101682.53;;;7.04;100.00
20444;BME280;10381;53.730;10.010;2022-11-14T02:06:47;101673.13;;;7.00;100.00
20444;BME280;10381;53.730;10.010;2022-11-14T02:10:48;101666.91;;;7.01;100.00
20444;BME280;10381;53.730;10.010;2022-11-14T02:14:50;101665.22;;;7.00;100.00
20444;BME280;10381;53.730;10.010;2022-11-14T02:18:51;101658.44;;;6.96;100.00
20444;BME280;10381;53.730;10.010;2022-11-14T02:22:52;101657.59;;;6.96;100.00
20444;BME280;10381;53.730;10.010;2022-11-14T02:26:52;101650.53;;;6.96;100.00
20444;BME280;10381;53.730;10.010;2022-11-14T02:30:53;101649.88;;;6.93;100.00
20444;BME280;10381;53.730;10.010;2022-11-14T02:34:53;101639.81;;;6.99;100.00
20444;BME280;10381;53.730;10.010;2022-11-14T02:38:53;101628.50;;;6.97;100.00
20444;BME280;10381;53.730;10.010;2022-11-14T02:42:54;101622.94;;;6.88;100.00
20444;BME280;10381;53.730;10.010;2022-11-14T02:46:54;101617.69;;;6.88;100.00
20444;BME280;10381;53.730;10.010;2022-11-14T02:50:54;101615.72;;;6.91;100.00
20444;BME280;10381;53.730;10.010;2022-11-14T02:54:54;101610.25;;;6.94;100.00
20444;BME280;10381;53.730;10.010;2022-11-14T02:58:55;101606.97;;;6.91;100.00
20444;BME280;10381;53.730;10.010;2022-11-14T03:02:55;101608.66;;;6.92;100.00
20444;BME280;10381;53.730;10.010;2022-11-14T03:06:55;101593.53;;;6.95;100.00
20444;BME280;10381;53.730;10.010;2022-11-14T03:11:02;101585.03;;;6.90;100.00
20444;BME280;10381;53.730;10.010;2022-11-14T03:15:06;101587.66;;;6.90;100.00
20444;BME280;10381;53.730;10.010;2022-11-14T03:19:07;101584.16;;;6.75;100.00
20444;BME280;10381;53.730;10.010;2022-11-14T03:23:07;101584.19;;;6.90;100.00
20444;BME280;10381;53.730;10.010;2022-11-14T03:27:07;101576.41;;;6.88;100.00
20444;BME280;10381;53.730;10.010;2022-11-14T03:31:09;101565.75;;;6.90;100.00
20444;BME280;10381;53.730;10.010;2022-11-14T03:35:10;101559.72;;;6.88;100.00
20444;BME280;10381;53.730;10.010;2022-11-14T03:39:10;101556.44;;;6.84;100.00
20444;BME280;10381;53.730;10.010;2022-11-14T03:43:11;101563.38;;;6.85;100.00
20444;BME280;10381;53.730;10.010;2022-11-14T03:47:11;101551.19;;;6.84;100.00
20444;BME280;10381;53.730;10.010;2022-11-14T03:51:11;101551.25;;;6.82;100.00
20444;BME280;10381;53.730;10.010;2022-11-14T03:55:11;101548.63;;;6.82;100.00
20444;BME280;10381;53.730;10.010;2022-11-14T03:59:12;101541.88;;;6.78;100.00
20444;BME280;10381;53.730;10.010;2022-11-14T04:03:12;101539.97;;;6.80;100.00
20444;BME280;10381;53.730;10.010;2022-11-14T04:07:12;101535.56;;;6.81;100.00
20444;BME280;10381;53.730;10.010;2022-11-14T04:11:13;101536.97;;;6.87;100.00
20444;BME280;10381;53.730;10.010;2022-11-14T04:15:13;101529.06;;;6.72;100.00
20444;BME280;10381;53.730;10.010;2022-11-14T04:19:14;101533.00;;;6.79;100.00
20444;BME280;10381;53.730;10.010;2022-11-14T04:23:14;101535.56;;;6.81;100.00
20444;BME280;10381;53.730;10.010;2022-11-14T04:27:15;101526.63;;;6.83;100.00
20444;BME280;10381;53.730;10.010;2022-11-14T04:31:16;101524.28;;;6.79;100.00
20444;BME280;10381;53.730;10.010;2022-11-14T04:35:16;101518.63;;;6.85;100.00
20444;BME280;10381;53.730;10.010;2022-11-14T04:39:17;101514.59;;;6.79;100.00
20444;BME280;10381;53.730;10.010;2022-11-14T04:43:18;101507.03;;;6.73;100.00
20444;BME280;10381;53.730;10.010;2022-11-14T04:47:19;101501.41;;;6.79;100.00
20444;BME280;10381;53.730;10.010;2022-11-14T04:51:19;101486.94;;;6.72;100.00
20444;BME280;10381;53.730;10.010;2022-11-14T04:55:20;101495.66;;;6.73;100.00
20444;BME280;10381;53.730;10.010;2022-11-14T04:59:20;101476.38;;;6.72;100.00
20444;BME280;10381;53.730;10.010;2022-11-14T05:03:20;101479.31;;;6.68;100.00
20444;BME280;10381;53.730;10.010;2022-11-14T05:07:20;101478.47;;;6.67;100.00
20444;BME280;10381;53.730;10.010;2022-11-14T05:11:21;101487.47;;;6.63;100.00
20444;BME280;10381;53.730;10.010;2022-11-14T05:15:21;101469.16;;;6.61;100.00
20444;BME280;10381;53.730;10.010;2022-11-14T05:19:21;101466.41;;;6.63;100.00
20444;BME280;10381;53.730;10.010;2022-11-14T05:23:22;101456.28;;;6.57;100.00
20444;BME280;10381;53.730;10.010;2022-11-14T05:27:23;101458.34;;;6.52;100.00
20444;BME280;10381;53.730;10.010;2022-11-14T05:31:23;101454.56;;;6.56;100.00
20444;BME280;10381;53.730;10.010;2022-11-14T05:35:23;101454.38;;;6.59;100.00
20444;BME280;10381;53.730;10.010;2022-11-14T05:39:23;101453.72;;;6.55;100.00
20444;BME280;10381;53.730;10.010;2022-11-14T05:43:24;101453.44;;;6.60;100.00
20444;BME280;10381;53.730;10.010;2022-11-14T05:47:24;101454.38;;;6.59;100.00
20444;BME280;10381;53.730;10.010;2022-11-14T05:51:25;101460.03;;;6.53;100.00
20444;BME280;10381;53.730;10.010;2022-11-14T05:55:25;101454.19;;;6.62;100.00
20444;BME280;10381;53.730;10.010;2022-11-14T05:59:25;101460.38;;;6.61;100.00
20444;BME280;10381;53.730;10.010;2022-11-14T06:03:30;101463.03;;;6.61;100.00
20444;BME280;10381;53.730;10.010;2022-11-14T06:07:31;101467.38;;;6.62;100.00
20444;BME280;10381;53.730;10.010;2022-11-14T06:11:31;101456.28;;;6.57;100.00
20444;BME280;10381;53.730;10.010;2022-11-14T06:15:31;101457.19;;;6.56;100.00
20444;BME280;10381;53.730;10.010;2022-11-14T06:19:32;101444.97;;;6.55;100.00
20444;BME280;10381;53.730;10.010;2022-11-14T06:23:32;101451.38;;;6.51;100.00
20444;BME280;10381;53.730;10.010;2022-11-14T06:27:33;101453.16;;;6.50;100.00
20444;BME280;10381;53.730;10.010;2022-11-14T06:31:33;101455.72;;;6.52;100.00
20444;BME280;10381;53.730;10.010;2022-11-14T06:35:33;101452.19;;;6.51;100.00
20444;BME280;10381;53.730;10.010;2022-11-14T06:39:34;101456.63;;;6.51;100.00
20444;BME280;10381;53.730;10.010;2022-11-14T06:43:37;101461.25;;;6.47;100.00
20444;BME280;10381;53.730;10.010;2022-11-14T06:47:37;101452.41;;;6.48;100.00
20444;BME280;10381;53.730;10.010;2022-11-14T06:51:37;101452.88;;;6.55;100.00
20444;BME280;10381;53.730;10.010;2022-11-14T06:55:37;101448.19;;;6.60;100.00
20444;BME280;10381;53.730;10.010;2022-11-14T06:59:38;101449.41;;;6.54;100.00
20444;BME280;10381;53.730;10.010;2022-11-14T07:03:39;101455.41;;;6.56;100.00
20444;BME280;10381;53.730;10.010;2022-11-14T07:07:39;101454.84;;;6.51;100.00
20444;BME280;10381;53.730;10.010;2022-11-14T07:11:40;101460.78;;;6.55;100.00
20444;BME280;10381;53.730;10.010;2022-11-14T07:15:49;101463.69;;;6.65;100.00
20444;BME280;10381;53.730;10.010;2022-11-14T07:19:50;101463.78;;;6.63;100.00
20444;BME280;10381;53.730;10.010;2022-11-14T07:23:50;101463.03;;;6.61;100.00
20444;BME280;10381;53.730;10.010;2022-11-14T07:27:50;101464.44;;;6.52;100.00
20444;BME280;10381;53.730;10.010;2022-11-14T07:31:51;101469.41;;;6.43;100.00
20444;BME280;10381;53.730;10.010;2022-11-14T07:35:51;101458.78;;;6.58;100.00
20444;BME280;10381;53.730;10.010;2022-11-14T07:39:51;101466.06;;;6.69;100.00
20444;BME280;10381;53.730;10.010;2022-11-14T07:43:52;101457.19;;;6.70;100.00
20444;BME280;10381;53.730;10.010;2022-11-14T07:47:56;101458.16;;;6.55;100.00
20444;BME280;10381;53.730;10.010;2022-11-14T07:51:57;101460.84;;;6.53;100.00
20444;BME280;10381;53.730;10.010;2022-11-14T07:56:02;101476.75;;;6.37;100.00
20444;BME280;10381;53.730;10.010;2022-11-14T08:00:03;101471.66;;;6.34;100.00
20444;BME280;10381;53.730;10.010;2022-11-14T08:04:03;101446.84;;;6.38;100.00
20444;BME280;10381;53.730;10.010;2022-11-14T08:08:04;101440.91;;;6.35;100.00
20444;BME280;10381;53.730;10.010;2022-11-14T08:12:05;101444.56;;;6.32;100.00
20444;BME280;10381;53.730;10.010;2022-11-14T08:16:07;101453.72;;;6.41;100.00
20444;BME280;10381;53.730;10.010;2022-11-14T08:20:08;101446.28;;;6.48;100.00
20444;BME280;10381;53.730;10.010;2022-11-14T08:24:09;101437.94;;;6.55;100.00
20444;BME280;10381;53.730;10.010;2022-11-14T08:28:09;101436.53;;;6.50;100.00
20444;BME280;10381;53.730;10.010;2022-11-14T08:32:10;101429.53;;;6.34;100.00
20444;BME280;10381;53.730;10.010;2022-11-14T08:36:10;101421.84;;;6.46;100.00
20444;BME280;10381;53.730;10.010;2022-11-14T08:40:11;101417.69;;;6.56;100.00
20444;BME280;10381;53.730;10.010;2022-11-14T08:44:11;101417.34;;;6.62;100.00
20444;BME280;10381;53.730;10.010;2022-11-14T08:48:11;101415.91;;;6.56;100.00
20444;BME280;10381;53.730;10.010;2022-11-14T08:52:11;101422.59;;;6.62;100.00
20444;BME280;10381;53.730;10.010;2022-11-14T08:56:12;101417.34;;;6.62;100.00
20444;BME280;10381;53.730;10.010;2022-11-14T09:00:13;101423.16;;;6.38;100.00
20444;BME280;10381;53.730;10.010;2022-11-14T09:04:13;101420.44;;;6.54;100.00
20444;BME280;10381;53.730;10.010;2022-11-14T09:08:13;101423.09;;;6.54;100.00
20444;BME280;10381;53.730;10.010;2022-11-14T09:12:14;101420.03;;;6.32;100.00
20444;BME280;10381;53.730;10.010;2022-11-14T09:16:14;101411.78;;;6.52;100.00
20444;BME280;10381;53.730;10.010;2022-11-14T09:20:14;101417.06;;;6.52;100.00
20444;BME280;10381;53.730;10.010;2022-11-14T09:24:15;101415.63;;;6.61;100.00
20444;BME280;10381;53.730;10.010;2022-11-14T09:28:15;101409.25;;;6.65;100.00
20444;BME280;10381;53.730;10.010;2022-11-14T09:32:15;101411.59;;;6.70;100.00
20444;BME280;10381;53.730;10.010;2022-11-14T09:36:16;101400.88;;;6.58;100.00
20444;BME280;10381;53.730;10.010;2022-11-14T09:40:17;101407.94;;;6.44;100.00
20444;BME280;10381;53.730;10.010;2022-11-14T09:48:33;101398.69;;;6.79;100.00
20444;BME280;10381;53.730;10.010;2022-11-14T09:52:39;101396.44;;;6.73;100.00
20444;BME280;10381;53.730;10.010;2022-11-14T09:56:44;101391.19;;;6.59;100.00
20444;BME280;10381;53.730;10.010;2022-11-14T10:00:54;101386.25;;;6.96;100.00
20444;BME280;10381;53.730;10.010;2022-11-14T10:13:35;101372.88;;;6.99;100.00
20444;BME280;10381;53.730;10.010;2022-11-14T10:18:10;101368.53;;;7.12;100.00
20444;BME280;10381;53.730;10.010;2022-11-14T10:22:50;101374.53;;;7.14;100.00
20444;BME280;10381;53.730;10.010;2022-11-14T10:27:05;101358.63;;;6.89;100.00
20444;BME280;10381;53.730;10.010;2022-11-14T10:31:25;101345.84;;;7.37;100.00
20444;BME280;10381;53.730;10.010;2022-11-14T10:39:50;101333.03;;;7.58;100.00
20444;BME280;10381;53.730;10.010;2022-11-14T10:43:51;101325.66;;;7.76;100.00
20444;BME280;10381;53.730;10.010;2022-11-14T10:47:59;101318.88;;;7.46;100.00
20444;BME280;10381;53.730;10.010;2022-11-14T10:52:08;101314.44;;;7.34;100.00
20444;BME280;10381;53.730;10.010;2022-11-14T10:56:11;101314.88;;;7.53;100.00
20444;BME280;10381;53.730;10.010;2022-11-14T11:00:18;101304.56;;;7.76;100.00
20444;BME280;10381;53.730;10.010;2022-11-14T11:08:28;101297.59;;;8.13;100.00
20444;BME280;10381;53.730;10.010;2022-11-14T11:12:49;101291.44;;;8.13;100.00
20444;BME280;10381;53.730;10.010;2022-11-14T11:17:17;101281.50;;;8.29;100.00
20444;BME280;10381;53.730;10.010;2022-11-14T11:21:21;101278.91;;;8.66;100.00
20444;BME280;10381;53.730;10.010;2022-11-14T11:25:25;101254.75;;;8.83;100.00
20444;BME280;10381;53.730;10.010;2022-11-14T11:29:26;101247.44;;;8.63;100.00
20444;BME280;10381;53.730;10.010;2022-11-14T11:33:36;101246.13;;;8.44;100.00
20444;BME280;10381;53.730;10.010;2022-11-14T11:37:53;101241.91;;;8.29;100.00
20444;BME280;10381;53.730;10.010;2022-11-14T11:41:56;101230.34;;;8.56;100.00
20444;BME280;10381;53.730;10.010;2022-11-14T11:46:02;101227.94;;;8.52;100.00
20444;BME280;10381;53.730;10.010;2022-11-14T11:50:03;101207.00;;;8.13;100.00
20444;BME280;10381;53.730;10.010;2022-11-14T11:54:16;101188.66;;;8.11;100.00
20444;BME280;10381;53.730;10.010;2022-11-14T11:58:34;101182.69;;;7.96;100.00
20444;BME280;10381;53.730;10.010;2022-11-14T12:02:40;101172.19;;;8.07;100.00
20444;BME280;10381;53.730;10.010;2022-11-14T12:06:46;101178.19;;;8.09;100.00
20444;BME280;10381;53.730;10.010;2022-11-14T12:10:51;101193.28;;;8.20;100.00
20444;BME280;10381;53.730;10.010;2022-11-14T12:15:13;101168.88;;;8.17;100.00
20444;BME280;10381;53.730;10.010;2022-11-14T12:28:45;101189.28;;;8.51;100.00
20444;BME280;10381;53.730;10.010;2022-11-14T12:32:53;101185.41;;;8.44;100.00
20444;BME280;10381;53.730;10.010;2022-11-14T12:36:54;101207.06;;;8.61;100.00
20444;BME280;10381;53.730;10.010;2022-11-14T12:40:56;101200.72;;;8.87;100.00
20444;BME280;10381;53.730;10.010;2022-11-14T12:44:57;101209.03;;;8.94;100.00
20444;BME280;10381;53.730;10.010;2022-11-14T12:48:57;101191.75;;;9.01;100.00
20444;BME280;10381;53.730;10.010;2022-11-14T12:52:58;101199.78;;;8.88;100.00
20444;BME280;10381;53.730;10.010;2022-11-14T12:57:01;101187.16;;;8.92;100.00
20444;BME280;10381;53.730;10.010;2022-11-14T13:10:31;101160.38;;;8.96;100.00
20444;BME280;10381;53.730;10.010;2022-11-14T13:14:50;101168.56;;;8.93;100.00
20444;BME280;10381;53.730;10.010;2022-11-14T13:27:31;101154.50;;;8.93;100.00
20444;BME280;10381;53.730;10.010;2022-11-14T13:35:41;101152.66;;;8.82;100.00
20444;BME280;10381;53.730;10.010;2022-11-14T13:44:37;101149.53;;;8.77;100.00
20444;BME280;10381;53.730;10.010;2022-11-14T13:52:45;101148.97;;;8.61;100.00
20444;BME280;10381;53.730;10.010;2022-11-14T13:57:14;101154.72;;;8.55;100.00
20444;BME280;10381;53.730;10.010;2022-11-14T14:05:40;101141.56;;;8.42;100.00
20444;BME280;10381;53.730;10.010;2022-11-14T14:09:59;101140.44;;;8.33;100.00
20444;BME280;10381;53.730;10.010;2022-11-14T14:18:43;101128.47;;;8.16;100.00
20444;BME280;10381;53.730;10.010;2022-11-14T14:22:56;101132.50;;;8.09;100.00
20444;BME280;10381;53.730;10.010;2022-11-14T14:31:16;101145.44;;;7.88;100.00
20444;BME280;10381;53.730;10.010;2022-11-14T14:35:28;101152.75;;;7.72;100.00
20444;BME280;10381;53.730;10.010;2022-11-14T14:39:29;101155.31;;;7.60;100.00
20444;BME280;10381;53.730;10.010;2022-11-14T14:43:31;101148.25;;;7.48;100.00
20444;BME280;10381;53.730;10.010;2022-11-14T14:47:39;101145.91;;;7.56;100.00
20444;BME280;10381;53.730;10.010;2022-11-14T14:51:40;101143.78;;;7.61;100.00
20444;BME280;10381;53.730;10.010;2022-11-14T14:55:50;101129.25;;;7.43;100.00
20444;BME280;10381;53.730;10.010;2022-11-14T15:00:06;101141.19;;;7.23;100.00
20444;BME280;10381;53.730;10.010;2022-11-14T15:04:07;101131.28;;;7.27;100.00
20444;BME280;10381;53.730;10.010;2022-11-14T15:08:14;101118.31;;;7.23;100.00
20444;BME280;10381;53.730;10.010;2022-11-14T15:12:15;101104.63;;;7.06;100.00
20444;BME280;10381;53.730;10.010;2022-11-14T15:16:16;101096.19;;;7.00;100.00
20444;BME280;10381;53.730;10.010;2022-11-14T15:20:25;101097.03;;;7.01;100.00
20444;BME280;10381;53.730;10.010;2022-11-14T15:24:25;101095.09;;;6.90;100.00
20444;BME280;10381;53.730;10.010;2022-11-14T15:28:26;101089.44;;;6.83;100.00
20444;BME280;10381;53.730;10.010;2022-11-14T15:32:28;101104.81;;;6.77;100.00
20444;BME280;10381;53.730;10.010;2022-11-14T15:36:28;101108.47;;;6.74;100.00
20444;BME280;10381;53.730;10.010;2022-11-14T15:40:34;101107.91;;;6.56;100.00
20444;BME280;10381;53.730;10.010;2022-11-14T15:44:36;101112.00;;;6.48;100.00
20444;BME280;10381;53.730;10.010;2022-11-14T15:48:39;101112.69;;;6.37;100.00
20444;BME280;10381;53.730;10.010;2022-11-14T15:53:15;101107.59;;;6.48;100.00
20444;BME280;10381;53.730;10.010;2022-11-14T15:57:16;101115.03;;;6.42;100.00
20444;BME280;10381;53.730;10.010;2022-11-14T16:01:22;101117.97;;;6.37;100.00
20444;BME280;10381;53.730;10.010;2022-11-14T16:05:29;101108.06;;;6.28;100.00
20444;BME280;10381;53.730;10.010;2022-11-14T16:09:30;101116.50;;;6.33;100.00
20444;BME280;10381;53.730;10.010;2022-11-14T16:13:30;101112.91;;;6.34;100.00
20444;BME280;10381;53.730;10.010;2022-11-14T16:17:35;101098.56;;;6.25;100.00
20444;BME280;10381;53.730;10.010;2022-11-14T16:21:39;101108.69;;;6.04;100.00
20444;BME280;10381;53.730;10.010;2022-11-14T16:25:39;101105.94;;;6.06;100.00
20444;BME280;10381;53.730;10.010;2022-11-14T16:29:39;101106.31;;;6.14;100.00
20444;BME280;10381;53.730;10.010;2022-11-14T16:33:39;101099.59;;;5.95;100.00
20444;BME280;10381;53.730;10.010;2022-11-14T16:37:40;101108.88;;;6.01;100.00
20444;BME280;10381;53.730;10.010;2022-11-14T16:41:41;101112.00;;;5.79;100.00
20444;BME280;10381;53.730;10.010;2022-11-14T16:45:41;101106.38;;;5.71;100.00
20444;BME280;10381;53.730;10.010;2022-11-14T16:49:41;101098.75;;;5.81;100.00
20444;BME280;10381;53.730;10.010;2022-11-14T16:53:41;101108.06;;;5.72;100.00
20444;BME280;10381;53.730;10.010;2022-11-14T16:57:42;101100.94;;;5.74;100.00
20444;BME280;10381;53.730;10.010;2022-11-14T17:01:42;101098.69;;;5.82;100.00
20444;BME280;10381;53.730;10.010;2022-11-14T17:05:50;101094.13;;;5.84;100.00
20444;BME280;10381;53.730;10.010;2022-11-14T17:09:51;101088.31;;;5.93;100.00
20444;BME280;10381;53.730;10.010;2022-11-14T17:13:51;101090.38;;;6.03;100.00
20444;BME280;10381;53.730;10.010;2022-11-14T17:17:52;101095.84;;;5.85;100.00
20444;BME280;10381;53.730;10.010;2022-11-14T17:21:53;101092.94;;;5.90;100.00
20444;BME280;10381;53.730;10.010;2022-11-14T17:26:00;101085.63;;;5.95;100.00
20444;BME280;10381;53.730;10.010;2022-11-14T17:30:00;101083.91;;;5.94;100.00
20444;BME280;10381;53.730;10.010;2022-11-14T17:34:00;101087.97;;;5.85;100.00
20444;BME280;10381;53.730;10.010;2022-11-14T17:38:02;101079.81;;;5.75;100.00
20444;BME280;10381;53.730;10.010;2022-11-14T17:42:02;101084.78;;;5.80;100.00
20444;BME280;10381;53.730;10.010;2022-11-14T17:46:03;101083.75;;;5.83;100.00
20444;BME280;10381;53.730;10.010;2022-11-14T17:50:04;101078.78;;;5.78;100.00
20444;BME280;10381;53.730;10.010;2022-11-14T17:54:05;101077.94;;;5.78;100.00
20444;BME280;10381;53.730;10.010;2022-11-14T17:58:05;101076.34;;;5.75;100.00
20444;BME280;10381;53.730;10.010;2022-11-14T18:02:12;101069.16;;;5.91;100.00
20444;BME280;10381;53.730;10.010;2022-11-14T18:06:14;101070.44;;;5.71;100.00
20444;BME280;10381;53.730;10.010;2022-11-14T18:10:16;101072.56;;;5.79;100.00
20444;BME280;10381;53.730;10.010;2022-11-14T18:14:16;101073.63;;;5.62;100.00
20444;BME280;10381;53.730;10.010;2022-11-14T18:18:16;101071.69;;;5.51;100.00
20444;BME280;10381;53.730;10.010;2022-11-14T18:22:18;101075.63;;;5.44;100.00
20444;BME280;10381;53.730;10.010;2022-11-14T18:26:20;101074.69;;;5.45;100.00
20444;BME280;10381;53.730;10.010;2022-11-14T18:30:22;101073.09;;;5.43;100.00
20444;BME280;10381;53.730;10.010;2022-11-14T18:34:22;101065.50;;;5.38;100.00
20444;BME280;10381;53.730;10.010;2022-11-14T18:38:22;101053.78;;;5.44;100.00
20444;BME280;10381;53.730;10.010;2022-11-14T18:42:23;101057.44;;;5.41;100.00
20444;BME280;10381;53.730;10.010;2022-11-14T18:46:24;101060.34;;;5.51;100.00
20444;BME280;10381;53.730;10.010;2022-11-14T18:50:25;101053.19;;;5.39;100.00
20444;BME280;10381;53.730;10.010;2022-11-14T18:54:25;101060.34;;;5.37;100.00
20444;BME280;10381;53.730;10.010;2022-11-14T18:58:26;101049.84;;;5.37;100.00
20444;BME280;10381;53.730;10.010;2022-11-14T19:02:26;101033.97;;;5.38;100.00
20444;BME280;10381;53.730;10.010;2022-11-14T19:06:26;101030.84;;;5.46;100.00
20444;BME280;10381;53.730;10.010;2022-11-14T19:10:27;101030.00;;;5.45;100.00
20444;BME280;10381;53.730;10.010;2022-11-14T19:14:28;101041.50;;;5.30;100.00
20444;BME280;10381;53.730;10.010;2022-11-14T19:18:28;101037.06;;;5.30;100.00
20444;BME280;10381;53.730;10.010;2022-11-14T19:22:29;101038.00;;;5.44;100.00
20444;BME280;10381;53.730;10.010;2022-11-14T19:26:30;101033.69;;;5.28;100.00
20444;BME280;10381;53.730;10.010;2022-11-14T19:30:30;101041.50;;;5.16;100.00
20444;BME280;10381;53.730;10.010;2022-11-14T19:34:31;101045.38;;;5.10;100.00
20444;BME280;10381;53.730;10.010;2022-11-14T19:38:31;101038.94;;;4.85;100.00
20444;BME280;10381;53.730;10.010;2022-11-14T19:42:31;101028.56;;;4.84;100.00
20444;BME280;10381;53.730;10.010;2022-11-14T19:46:33;101027.81;;;4.96;100.00
20444;BME280;10381;53.730;10.010;2022-11-14T19:50:35;101026.75;;;4.70;100.00
20444;BME280;10381;53.730;10.010;2022-11-14T19:54:36;101019.06;;;4.53;100.00
20444;BME280;10381;53.730;10.010;2022-11-14T19:58:37;101021.22;;;4.60;100.00
20444;BME280;10381;53.730;10.010;2022-11-14T20:02:38;101027.81;;;4.37;100.00
20444;BME280;10381;53.730;10.010;2022-11-14T20:06:39;101016.97;;;4.13;100.00
20444;BME280;10381;53.730;10.010;2022-11-14T20:10:40;101014.03;;;4.34;100.00
20444;BME280;10381;53.730;10.010;2022-11-14T20:14:46;101011.00;;;4.25;100.00
20444;BME280;10381;53.730;10.010;2022-11-14T20:18:47;101009.56;;;4.36;100.00
20444;BME280;10381;53.730;10.010;2022-11-14T20:22:48;100996.47;;;4.50;100.00
20444;BME280;10381;53.730;10.010;2022-11-14T20:26:49;100998.91;;;4.53;100.00
20444;BME280;10381;53.730;10.010;2022-11-14T20:30:49;100996.47;;;4.50;100.00
20444;BME280;10381;53.730;10.010;2022-11-14T20:34:49;100980.34;;;4.56;100.00
20444;BME280;10381;53.730;10.010;2022-11-14T20:38:51;100981.47;;;4.52;100.00
20444;BME280;10381;53.730;10.010;2022-11-14T20:42:51;100979.78;;;4.51;100.00
20444;BME280;10381;53.730;10.010;2022-11-14T20:46:52;100991.97;;;4.38;100.00
20444;BME280;10381;53.730;10.010;2022-11-14T20:55:01;100981.31;;;4.69;100.00
20444;BME280;10381;53.730;10.010;2022-11-14T20:59:02;100976.50;;;4.33;100.00
20444;BME280;10381;53.730;10.010;2022-11-14T21:03:02;100975.63;;;4.33;100.00
20444;BME280;10381;53.730;10.010;2022-11-14T21:07:02;100962.91;;;4.41;100.00
20444;BME280;10381;53.730;10.010;2022-11-14T21:11:06;100971.88;;;4.37;100.00
20444;BME280;10381;53.730;10.010;2022-11-14T21:15:07;100953.72;;;4.34;100.00
20444;BME280;10381;53.730;10.010;2022-11-14T21:19:08;100949.59;;;4.44;100.00
20444;BME280;10381;53.730;10.010;2022-11-14T21:23:08;100932.84;;;4.61;100.00
20444;BME280;10381;53.730;10.010;2022-11-14T21:27:08;100927.31;;;4.65;100.00
20444;BME280;10381;53.730;10.010;2022-11-14T21:35:17;100925.44;;;4.67;100.00
20444;BME280;10381;53.730;10.010;2022-11-14T21:39:17;100915.13;;;4.79;100.00
20444;BME280;10381;53.730;10.010;2022-11-14T21:43:18;100923.63;;;4.97;100.00
20444;BME280;10381;53.730;10.010;2022-11-14T21:47:18;100916.72;;;4.67;100.00
20444;BME280;10381;53.730;10.010;2022-11-14T21:51:29;100928.25;;;4.64;100.00
20444;BME280;10381;53.730;10.010;2022-11-14T21:55:32;100923.94;;;4.49;100.00
20444;BME280;10381;53.730;10.010;2022-11-14T21:59:33;100920.19;;;4.39;100.00
20444;BME280;10381;53.730;10.010;2022-11-14T22:03:34;100919.25;;;4.54;100.00
20444;BME280;10381;53.730;10.010;2022-11-14T22:07:53;100915.31;;;4.61;100.00
20444;BME280;10381;53.730;10.010;2022-11-14T22:11:54;100913.44;;;4.63;100.00
20444;BME280;10381;53.730;10.010;2022-11-14T22:15:55;100911.38;;;4.54;100.00